Blackpool, United Kingdom

10:07 AM GMT on January 23, 2017 (GMT +0000)
Blackpool | | Change Station

Elev 33 ft 53.77 °N, 3.03 °W | Updated 17 minutes ago

Fog
Fog
34 °F
Feels Like 28 °F
N
7
Wind Variable Wind from ESE

Today
High -- | Low -- °F
--% Chance of Precip.
Yesterday
High -- | Low -- °F
Precip. -- in
Pressure 30.33 in
Visibility 0.1 miles
Clouds
Windchill 28 °F
Dew Point 34 °F
Humidity 100%
Rainfall 0.00 in
Snow Depth Not available.
8:11 AM 4:36 PM
Waning Crescent, 19% visible
METAR EGNH 230950Z 11006KT 0200 FG VV/// 01/01 Q1027
Pressure 30.33 in
Visibility 0.1 miles
Clouds
Windchill 28 °F
Dew Point 34 °F
Humidity 100%
Rainfall 0.00 in
Snow Depth Not available.
8:11 AM 4:36 PM
Waning Crescent, 19% visible
METAR EGNH 230950Z 11006KT 0200 FG VV/// 01/01 Q1027

Get Your Daily Forecast Email!

Thanks for signing up!

Be on the lookout for a verification email in your inbox.

You'll start receiving the daily forecast at 8 AM.

×

10-Day Weather Forecast

×

Almanac

Astronomy

Jan. 23, 2017 Rise Set
Actual Time
Civil Twilight
Nautical Twilight
Astronomical Twilight
Moon
Length of Visible Light
Length of Day
Tomorrow will be .
, % of the Moon is Illuminated

Today's Extremes

Country Highs Country Lows

Community

WunderPhotos

Upload Photos

1,962,540 photos uploaded!

WunderBlog® & News

Nearby

Air Quality

  Air Quality AQ Index Pollutant
Not available.

Snow Depth

Station Depth Elevation

Earthquake Activity

City Distance Mag. Time & Date
Minimum magnitude displayed is 2.5.

Coastal Water Temperatures

Place Temperature

Stations

Nearby Weather Stations

Station Location Temp. Windchill Dew Point Humidity Wind Precip. Elev Updated Type